Time;durP1;ratioP1;P1;durP2;ratioP2;P2;SDS_P1;SDS_P2;PMS_P1;PMS_P2;Temp;Humidity;BMP_temperature;BMP_pressure;BME280_temperature;BME280_humidity;BME280_pressure;Samples;Min_cycle;Max_cycle;Signal;HPM_P1;HPM_P2
2023/09/04 00:00:18;;;;;;;9.80;5.43;;;;;;;17.23;73.98;101035.72;5091834;28;20281;-83
2023/09/04 00:02:43;;;;;;;10.73;6.25;;;;;;;17.26;73.99;101040.69;5090222;28;20742;-83
2023/09/04 00:05:09;;;;;;;7.82;4.93;;;;;;;17.25;74.17;101035.44;5090068;28;20104;-84
2023/09/04 00:07:34;;;;;;;10.05;5.35;;;;;;;17.24;74.01;101036.56;5090069;28;20048;-82
2023/09/04 00:09:59;;;;;;;9.67;5.20;;;;;;;17.22;74.44;101038.78;5090892;28;20511;-84
2023/09/04 00:12:25;;;;;;;11.13;5.72;;;;;;;17.20;74.42;101029.94;5090449;28;20301;-83
2023/09/04 00:14:51;;;;;;;10.93;5.47;;;;;;;17.19;74.43;101034.63;5089350;28;20024;-83
2023/09/04 00:17:18;;;;;;;8.20;5.57;;;;;;;17.21;74.46;101026.06;5087449;28;20035;-82
2023/09/04 00:19:43;;;;;;;7.53;4.78;;;;;;;17.19;74.47;101033.81;5085025;28;20028;-83
2023/09/04 00:22:09;;;;;;;9.65;5.05;;;;;;;17.15;74.67;101026.09;5088289;28;20036;-83
2023/09/04 00:24:34;;;;;;;7.37;4.60;;;;;;;17.17;74.72;101033.28;5089167;28;20107;-84
2023/09/04 00:26:59;;;;;;;9.27;4.90;;;;;;;17.09;74.80;101029.94;5090391;28;20261;-83
2023/09/04 00:29:24;;;;;;;8.82;5.80;;;;;;;17.11;74.71;101021.38;5088729;28;20738;-84
2023/09/04 00:31:50;;;;;;;9.30;5.60;;;;;;;17.09;74.63;101024.44;5089843;28;20036;-84
2023/09/04 00:34:15;;;;;;;10.73;4.83;;;;;;;17.08;74.53;101025.53;5088936;28;20268;-73
2023/09/04 00:36:40;;;;;;;19.15;5.40;;;;;;;17.08;75.01;101017.28;5086328;28;20248;-74
2023/09/04 00:39:06;;;;;;;9.07;4.82;;;;;;;17.10;74.55;101012.31;5086191;28;20499;-75
2023/09/04 00:41:31;;;;;;;13.52;5.28;;;;;;;17.16;74.48;101010.41;5086818;28;20480;-73
2023/09/04 00:43:57;;;;;;;9.57;5.20;;;;;;;17.19;74.11;101007.06;5089230;28;20088;-83
2023/09/04 00:46:22;;;;;;;8.77;5.35;;;;;;;17.18;74.45;101010.13;5091307;28;20028;-84
2023/09/04 00:48:48;;;;;;;7.95;4.63;;;;;;;17.16;74.36;101002.13;5090649;28;20564;-83
2023/09/04 00:51:13;;;;;;;9.63;5.22;;;;;;;17.15;74.06;100994.97;5088911;28;20115;-84
2023/09/04 00:53:39;;;;;;;8.45;5.10;;;;;;;17.17;74.03;101008.47;5091130;28;20074;-83
2023/09/04 00:56:06;;;;;;;13.55;5.35;;;;;;;17.20;74.08;101007.91;5091017;28;20036;-83
2023/09/04 00:58:33;;;;;;;8.55;5.00;;;;;;;17.24;74.25;101009.00;5089878;28;20784;-83
2023/09/04 01:01:01;;;;;;;22.88;5.80;;;;;;;17.21;73.84;101009.53;5090216;28;20055;-84
2023/09/04 01:03:28;;;;;;;10.02;6.18;;;;;;;17.18;74.01;100999.09;5089192;28;20036;-84
2023/09/04 01:05:54;;;;;;;12.32;5.85;;;;;;;17.18;73.86;101001.84;5090028;28;20627;-85
2023/09/04 01:08:19;;;;;;;10.80;5.60;;;;;;;17.21;74.33;100999.34;5090261;28;20107;-84
2023/09/04 01:10:53;;;;;;;9.57;5.05;;;;;;;17.18;73.71;101010.13;5090312;28;20024;-85
2023/09/04 01:13:28;;;;;;;14.30;5.60;;;;;;;17.13;74.17;101009.03;5090794;28;20118;-84
2023/09/04 01:15:54;;;;;;;12.60;5.47;;;;;;;17.04;74.29;100999.66;5090333;28;20062;-84
2023/09/04 01:18:20;;;;;;;11.00;6.25;;;;;;;16.97;74.83;101001.84;5091821;28;20481;-83
2023/09/04 01:20:59;;;;;;;10.07;5.88;;;;;;;16.91;74.86;101006.56;5091528;28;20024;-84
2023/09/04 01:23:24;;;;;;;13.48;6.25;;;;;;;16.89;74.82;101004.09;5091101;28;20027;-83
2023/09/04 01:26:14;;;;;;;8.57;5.17;;;;;;;16.88;75.06;101002.41;5090669;28;20028;-84
2023/09/04 01:28:53;;;;;;;10.38;5.57;;;;;;;16.79;74.97;101004.94;5089870;28;21031;-83
2023/09/04 01:31:44;;;;;;;11.90;6.60;;;;;;;16.76;75.33;101004.66;5089656;28;20059;-81
2023/09/04 01:34:14;;;;;;;10.57;5.38;;;;;;;16.75;75.86;101000.25;5087545;28;20126;-82
2023/09/04 01:36:40;;;;;;;13.38;5.90;;;;;;;16.80;75.50;101003.00;5088245;28;20975;-83
2023/09/04 01:39:06;;;;;;;10.23;5.57;;;;;;;16.84;75.51;101001.31;5087566;28;20100;-83
2023/09/04 01:41:31;;;;;;;9.93;5.68;;;;;;;16.81;75.43;101007.41;5084105;28;20032;-82
2023/09/04 01:43:57;;;;;;;12.30;7.13;;;;;;;16.73;75.77;101005.19;5089440;28;20054;-84
2023/09/04 01:46:22;;;;;;;8.30;5.47;;;;;;;16.70;75.65;101001.06;5091806;28;20318;-83
2023/09/04 01:48:48;;;;;;;11.65;5.88;;;;;;;16.66;75.53;100992.53;5092752;28;20351;-83
2023/09/04 01:51:13;;;;;;;9.82;5.57;;;;;;;16.63;75.73;100984.84;5090948;28;20540;-84
2023/09/04 01:53:39;;;;;;;10.40;5.77;;;;;;;16.55;75.72;100988.13;5093150;28;20110;-84
2023/09/04 01:56:04;;;;;;;9.33;5.73;;;;;;;16.43;76.00;100986.47;5093221;28;20321;-84
2023/09/04 01:58:29;;;;;;;9.85;5.47;;;;;;;16.36;75.71;100991.44;5093644;28;20251;-81
2023/09/04 02:00:55;;;;;;;14.73;6.37;;;;;;;16.37;76.42;100992.25;5093299;28;20110;-85
2023/09/04 02:03:20;;;;;;;10.90;5.43;;;;;;;16.38;76.28;100994.75;5094232;28;20245;-83
2023/09/04 02:05:46;;;;;;;10.90;5.75;;;;;;;16.39;76.18;100992.81;5092695;28;20122;-84
2023/09/04 02:08:11;;;;;;;14.77;5.55;;;;;;;16.35;76.07;100995.28;5092810;28;20024;-83
2023/09/04 02:10:37;;;;;;;10.00;5.70;;;;;;;16.30;75.87;100995.28;5092976;28;20089;-83
2023/09/04 02:13:03;;;;;;;11.63;6.22;;;;;;;16.28;76.20;100992.81;5093891;28;20032;-82
2023/09/04 02:15:32;;;;;;;10.55;5.38;;;;;;;16.24;76.44;100999.13;5092496;28;20032;-84
2023/09/04 02:18:01;;;;;;;8.68;5.25;;;;;;;16.17;76.42;101005.72;5092958;28;20020;-83
2023/09/04 02:20:27;;;;;;;10.68;5.78;;;;;;;16.08;76.64;100997.19;5091623;28;20043;-83
2023/09/04 02:22:52;;;;;;;8.38;4.82;;;;;;;16.05;76.47;100997.72;5092258;28;20027;-81
2023/09/04 02:25:17;;;;;;;9.40;4.63;;;;;;;16.01;76.53;101004.00;5092474;28;20052;-83
2023/09/04 02:27:42;;;;;;;10.47;5.90;;;;;;;15.98;76.68;101003.47;5092844;28;20276;-84
2023/09/04 02:30:08;;;;;;;11.23;6.03;;;;;;;15.97;76.39;101001.78;5092538;28;20260;-80
2023/09/04 02:32:34;;;;;;;8.15;4.93;;;;;;;15.96;76.70;101002.91;5092763;28;20294;-81
2023/09/04 02:35:00;;;;;;;10.70;6.68;;;;;;;15.96;76.75;101000.16;5092148;28;20393;-81
2023/09/04 02:37:26;;;;;;;10.30;5.25;;;;;;;15.98;76.86;100995.22;5093011;28;20024;-82
2023/09/04 02:39:51;;;;;;;10.27;5.97;;;;;;;16.02;76.79;100992.78;5093296;28;20035;-82
2023/09/04 02:42:17;;;;;;;12.63;6.13;;;;;;;16.07;77.44;100987.25;5091761;28;20024;-82
2023/09/04 02:44:42;;;;;;;10.70;5.80;;;;;;;16.11;76.91;100984.78;5092113;28;20288;-81
2023/09/04 02:47:07;;;;;;;11.87;6.57;;;;;;;16.09;76.64;100986.97;5093030;28;20625;-83
2023/09/04 02:49:32;;;;;;;14.40;7.55;;;;;;;16.10;77.18;100980.41;5092498;28;20291;-81
2023/09/04 02:51:58;;;;;;;13.65;6.47;;;;;;;16.11;77.25;100979.28;5087168;28;20059;-81
2023/09/04 02:54:23;;;;;;;11.00;6.23;;;;;;;16.16;77.45;100982.06;5087732;28;20036;-81
2023/09/04 02:56:48;;;;;;;18.63;8.23;;;;;;;16.21;77.20;100979.31;5091431;28;20741;-81
2023/09/04 02:59:14;;;;;;;13.10;6.50;;;;;;;16.22;76.91;100986.47;5091490;28;20265;-81
2023/09/04 03:01:39;;;;;;;12.18;6.18;;;;;;;16.20;76.69;100983.16;5092438;28;20875;-81
2023/09/04 03:04:04;;;;;;;11.00;5.93;;;;;;;16.19;76.91;100978.75;5090055;28;20028;-71
2023/09/04 03:06:30;;;;;;;8.30;5.38;;;;;;;16.19;76.64;100978.75;5087538;28;20052;-71
2023/09/04 03:08:55;;;;;;;14.18;5.95;;;;;;;16.14;76.65;100973.25;5088010;28;20045;-71
2023/09/04 03:11:21;;;;;;;10.05;5.22;;;;;;;16.10;76.77;100975.72;5087778;28;20035;-71
2023/09/04 03:13:46;;;;;;;13.25;6.18;;;;;;;16.02;76.88;100981.75;5087044;28;20066;-70
2023/09/04 03:16:11;;;;;;;8.87;4.87;;;;;;;15.95;76.89;100976.47;5088018;28;20069;-70
2023/09/04 03:18:37;;;;;;;9.55;5.32;;;;;;;15.91;77.21;100975.38;5087479;28;20255;-71
2023/09/04 03:21:02;;;;;;;9.70;6.00;;;;;;;15.88;76.96;100962.19;5087551;28;20038;-72
2023/09/04 03:23:28;;;;;;;13.07;6.97;;;;;;;15.83;77.21;100962.16;5087131;28;20646;-71
2023/09/04 03:25:53;;;;;;;11.70;6.90;;;;;;;15.82;77.15;100960.50;5086515;28;20040;-72
2023/09/04 03:28:18;;;;;;;12.73;6.20;;;;;;;15.75;77.16;100961.59;5088069;28;20043;-71
2023/09/04 03:30:43;;;;;;;14.00;6.45;;;;;;;15.82;76.99;100955.03;5085944;28;20264;-70
2023/09/04 03:33:09;;;;;;;10.27;5.40;;;;;;;15.85;77.19;100957.22;5085570;28;20503;-72
2023/09/04 03:35:34;;;;;;;11.82;6.63;;;;;;;15.84;76.86;100963.81;5086513;28;20257;-72
2023/09/04 03:37:59;;;;;;;10.80;5.80;;;;;;;15.85;77.18;100959.97;5087071;28;20024;-71
2023/09/04 03:40:26;;;;;;;13.95;5.85;;;;;;;15.85;77.28;100958.03;5085747;28;20310;-70
2023/09/04 03:42:52;;;;;;;16.10;8.40;;;;;;;15.85;76.75;100962.72;5085309;28;20020;-70
2023/09/04 03:45:18;;;;;;;11.93;6.63;;;;;;;15.82;76.89;100961.34;5084256;28;20126;-71
2023/09/04 03:47:44;;;;;;;12.80;5.75;;;;;;;15.80;77.05;100958.03;5085384;28;20162;-70
2023/09/04 03:50:11;;;;;;;12.98;6.95;;;;;;;15.74;77.25;100951.69;5083413;28;20044;-70
2023/09/04 03:52:38;;;;;;;12.30;6.82;;;;;;;15.72;77.17;100948.38;5083689;28;20113;-70
2023/09/04 03:55:08;;;;;;;11.38;6.90;;;;;;;15.72;77.39;100953.88;5084730;28;20028;-71
2023/09/04 03:57:36;;;;;;;10.10;5.13;;;;;;;15.71;77.52;100954.16;5085638;28;20111;-69
2023/09/04 04:00:02;;;;;;;10.23;6.35;;;;;;;15.68;77.25;100954.72;5088210;28;20020;-73
2023/09/04 04:02:27;;;;;;;11.50;6.65;;;;;;;15.64;77.51;100957.19;5087755;28;20028;-71
2023/09/04 04:04:53;;;;;;;14.13;5.90;;;;;;;15.67;77.24;100955.78;5084459;28;20039;-71
2023/09/04 04:07:18;;;;;;;12.65;7.10;;;;;;;15.60;76.84;100956.06;5085362;28;20697;-71
2023/09/04 04:09:44;;;;;;;12.18;6.18;;;;;;;15.54;77.06;100965.38;5085636;28;20497;-69
2023/09/04 04:12:10;;;;;;;9.73;6.00;;;;;;;15.52;77.18;100957.38;5086839;28;20421;-71
2023/09/04 04:14:35;;;;;;;9.90;6.13;;;;;;;15.48;77.44;100957.09;5089790;28;20028;-80
2023/09/04 04:17:01;;;;;;;10.82;6.43;;;;;;;15.46;77.35;100948.31;5092325;28;20032;-81
2023/09/04 04:19:27;;;;;;;13.07;8.70;;;;;;;15.43;77.37;100946.09;5091316;28;20032;-82
2023/09/04 04:21:52;;;;;;;11.48;6.88;;;;;;;15.46;77.54;100953.00;5090020;28;20630;-82
2023/09/04 04:24:19;;;;;;;12.13;5.97;;;;;;;15.50;77.17;100945.84;5091813;28;20023;-81
2023/09/04 04:26:44;;;;;;;11.32;6.60;;;;;;;15.47;77.35;100949.97;5091734;28;20249;-82
2023/09/04 04:29:10;;;;;;;11.32;6.15;;;;;;;15.48;77.25;100957.09;5091589;28;20732;-82
2023/09/04 04:31:35;;;;;;;9.23;5.53;;;;;;;15.51;77.27;100958.50;5090568;28;20040;-81
2023/09/04 04:34:00;;;;;;;9.50;5.47;;;;;;;15.55;77.78;100950.53;5091409;28;20032;-81
2023/09/04 04:36:26;;;;;;;10.43;6.03;;;;;;;15.61;77.35;100954.94;5092165;28;20303;-81
2023/09/04 04:38:51;;;;;;;9.93;6.00;;;;;;;15.65;77.71;100950.56;5090990;28;20267;-83
2023/09/04 04:41:17;;;;;;;9.95;5.30;;;;;;;15.64;77.66;100944.25;5092067;28;20102;-81
2023/09/04 04:43:42;;;;;;;8.85;4.82;;;;;;;15.65;77.60;100947.81;5090531;28;20191;-81
2023/09/04 04:46:09;;;;;;;11.37;5.53;;;;;;;15.71;77.59;100944.00;5091748;28;20036;-81
2023/09/04 04:48:34;;;;;;;10.02;5.55;;;;;;;15.77;77.78;100950.31;5091040;28;20241;-82
2023/09/04 04:50:59;;;;;;;11.87;4.70;;;;;;;15.80;77.37;100951.72;5091380;28;20044;-83
2023/09/04 04:53:25;;;;;;;9.13;5.00;;;;;;;15.79;77.44;100958.28;5091406;28;20249;-83
2023/09/04 04:55:51;;;;;;;11.40;6.22;;;;;;;15.83;77.63;100953.91;5090917;28;20252;-81
2023/09/04 04:58:16;;;;;;;9.03;5.63;;;;;;;15.88;77.33;100953.94;5090863;28;20377;-82
2023/09/04 05:00:42;;;;;;;10.50;5.80;;;;;;;15.91;77.31;100936.88;5090364;28;20284;-81
2023/09/04 05:03:08;;;;;;;11.07;6.07;;;;;;;15.93;77.27;100939.34;5090332;28;20093;-82
2023/09/04 05:05:34;;;;;;;8.25;5.07;;;;;;;15.91;76.93;100947.03;5089645;28;20111;-81
2023/09/04 05:07:59;;;;;;;8.85;5.13;;;;;;;15.91;77.33;100955.28;5088912;28;20119;-81
2023/09/04 05:10:24;;;;;;;13.97;5.93;;;;;;;15.87;77.14;100957.78;5090469;28;20603;-81
2023/09/04 05:12:49;;;;;;;12.53;7.10;;;;;;;15.86;76.93;100950.63;5090652;28;20254;-81
2023/09/04 05:15:15;;;;;;;10.47;5.37;;;;;;;15.81;77.16;100951.44;5086339;28;20825;-71
2023/09/04 05:17:40;;;;;;;10.13;6.03;;;;;;;15.73;77.08;100947.28;5087988;28;20291;-70
2023/09/04 05:20:06;;;;;;;10.25;5.38;;;;;;;15.70;77.58;100950.56;5089588;28;20122;-71
2023/09/04 05:22:32;;;;;;;12.25;5.28;;;;;;;15.69;77.46;100956.34;5090146;28;20034;-70
2023/09/04 05:24:58;;;;;;;13.07;7.03;;;;;;;15.62;77.71;100962.13;5088802;28;20089;-71
2023/09/04 05:27:23;;;;;;;10.35;5.75;;;;;;;15.60;77.77;100950.56;5085512;28;20040;-70
2023/09/04 05:29:49;;;;;;;11.70;6.00;;;;;;;15.57;77.84;100951.91;5088108;28;20040;-70
2023/09/04 05:32:14;;;;;;;9.23;5.80;;;;;;;15.58;78.40;100961.81;5088743;28;20240;-71
2023/09/04 05:34:40;;;;;;;12.50;5.10;;;;;;;15.71;78.13;100952.25;5089787;28;20028;-71
2023/09/04 05:37:07;;;;;;;10.57;5.28;;;;;;;15.78;78.10;100963.00;5089794;28;20879;-72
2023/09/04 05:39:33;;;;;;;11.80;6.65;;;;;;;15.89;77.86;100961.06;5088853;28;20074;-72
2023/09/04 05:41:58;;;;;;;9.03;5.37;;;;;;;15.91;77.69;100952.53;5088941;28;20067;-72
2023/09/04 05:44:23;;;;;;;9.13;5.47;;;;;;;15.87;77.82;100961.34;5086759;28;20264;-71
2023/09/04 05:46:48;;;;;;;12.67;6.27;;;;;;;15.85;77.88;100970.97;5088605;28;20032;-70
2023/09/04 05:49:14;;;;;;;9.50;5.57;;;;;;;15.84;77.93;100961.06;5086773;28;20264;-71
2023/09/04 05:51:39;;;;;;;9.68;5.35;;;;;;;15.82;77.95;100963.25;5085366;28;20261;-70
2023/09/04 05:54:04;;;;;;;10.87;5.53;;;;;;;15.80;78.22;100965.47;5084856;28;20509;-71
2023/09/04 05:56:29;;;;;;;15.57;5.45;;;;;;;15.84;78.62;100972.06;5085018;28;20256;-71
2023/09/04 05:58:56;;;;;;;11.03;5.43;;;;;;;15.86;78.55;100967.94;5085201;28;20036;-71
2023/09/04 06:01:23;;;;;;;10.73;4.75;;;;;;;15.87;79.09;100968.75;5084369;28;20280;-70
2023/09/04 06:03:49;;;;;;;13.50;5.47;;;;;;;15.90;78.99;100968.25;5084803;28;20033;-70
2023/09/04 06:06:15;;;;;;;10.60;5.72;;;;;;;15.96;79.18;100967.16;5084744;28;20421;-72
2023/09/04 06:08:41;;;;;;;8.98;5.32;;;;;;;16.01;79.12;100962.75;5085098;28;20051;-71
2023/09/04 06:11:06;;;;;;;10.90;5.70;;;;;;;16.05;79.30;100970.22;5085290;28;20484;-71
2023/09/04 06:13:32;;;;;;;9.18;5.38;;;;;;;16.10;79.25;100969.41;5084651;28;20070;-71
2023/09/04 06:15:59;;;;;;;9.43;5.10;;;;;;;16.19;79.51;100970.50;5084510;28;20035;-71
2023/09/04 06:18:25;;;;;;;7.40;4.85;;;;;;;16.27;79.13;100960.06;5084517;28;20035;-70
2023/09/04 06:20:50;;;;;;;9.05;5.45;;;;;;;16.30;79.22;100965.00;5085341;28;20694;-71
2023/09/04 06:23:16;;;;;;;9.02;4.88;;;;;;;16.36;79.27;100969.41;5085378;28;20102;-77
2023/09/04 06:25:42;;;;;;;8.20;4.78;;;;;;;16.41;78.84;100966.69;5084712;28;20071;-71
2023/09/04 06:28:10;;;;;;;8.30;4.65;;;;;;;16.49;78.82;100965.31;5083840;28;20119;-71
2023/09/04 06:30:35;;;;;;;9.23;4.80;;;;;;;16.54;78.63;100964.44;5083818;28;20118;-72
2023/09/04 06:33:02;;;;;;;9.98;4.43;;;;;;;16.59;78.43;100967.22;5085007;28;20036;-70
2023/09/04 06:35:28;;;;;;;11.10;5.30;;;;;;;16.61;78.46;100970.53;5085380;28;20188;-79
2023/09/04 06:37:54;;;;;;;8.35;4.30;;;;;;;16.65;78.50;100965.28;5085872;28;20493;-80
2023/09/04 06:40:19;;;;;;;9.25;4.68;;;;;;;16.67;78.91;100963.91;5085551;28;20081;-79
2023/09/04 06:42:44;;;;;;;8.90;4.55;;;;;;;16.71;78.56;100960.59;5086054;28;20103;-81
2023/09/04 06:45:10;;;;;;;7.88;4.75;;;;;;;16.74;78.64;100957.31;5083950;28;20036;-81
2023/09/04 06:47:35;;;;;;;8.30;4.40;;;;;;;16.72;78.73;100952.03;5084752;28;20173;-81
2023/09/04 06:50:01;;;;;;;15.68;4.75;;;;;;;16.73;79.30;100963.91;5085396;28;20393;-81
2023/09/04 06:52:27;;;;;;;16.70;5.05;;;;;;;16.75;79.76;100961.69;5085094;28;20035;-80
2023/09/04 06:54:52;;;;;;;6.97;4.43;;;;;;;16.77;79.69;100960.31;5084845;28;20036;-81
2023/09/04 06:57:17;;;;;;;9.83;4.30;;;;;;;16.79;79.68;100955.34;5084581;28;20024;-81
2023/09/04 06:59:42;;;;;;;9.17;4.70;;;;;;;16.85;79.83;100958.94;5085081;28;20857;-80
2023/09/04 07:02:08;;;;;;;8.00;4.13;;;;;;;16.88;80.03;100952.03;5084697;28;20297;-83
2023/09/04 07:04:33;;;;;;;12.60;4.93;;;;;;;16.90;80.03;100956.16;5084129;28;20039;-82
2023/09/04 07:06:58;;;;;;;9.40;4.10;;;;;;;16.92;80.42;100950.38;5085674;28;20280;-80
2023/09/04 07:09:23;;;;;;;13.33;4.93;;;;;;;16.98;79.75;100956.69;5084834;28;20671;-80
2023/09/04 07:11:49;;;;;;;9.23;4.50;;;;;;;17.03;79.98;100953.91;5085313;28;20256;-79
2023/09/04 07:14:14;;;;;;;11.57;3.92;;;;;;;17.15;79.22;100953.63;5083202;28;20343;-72
2023/09/04 07:16:39;;;;;;;7.17;4.13;;;;;;;17.27;78.50;100947.81;5084047;28;20032;-78
2023/09/04 07:19:05;;;;;;;7.28;4.10;;;;;;;17.36;78.05;100945.31;5084103;28;20287;-78
2023/09/04 07:21:30;;;;;;;8.10;3.80;;;;;;;17.47;77.79;100940.59;5083867;28;20114;-81
2023/09/04 07:23:55;;;;;;;6.90;3.60;;;;;;;17.49;77.53;100949.38;5085185;28;20493;-76
2023/09/04 07:26:20;;;;;;;7.30;3.90;;;;;;;17.56;77.66;100938.03;5083488;28;20260;-76
2023/09/04 07:28:45;;;;;;;7.50;4.17;;;;;;;17.64;77.11;100942.97;5085023;28;20264;-76
2023/09/04 07:31:18;;;;;;;6.37;3.30;;;;;;;17.70;76.42;100933.56;5084985;28;20294;-76
2023/09/04 07:33:45;;;;;;;7.67;3.63;;;;;;;17.72;76.52;100938.78;5084849;28;20631;-76
2023/09/04 07:36:10;;;;;;;8.80;3.90;;;;;;;17.79;75.84;100941.22;5083604;28;20043;-76
2023/09/04 07:38:36;;;;;;;7.37;3.93;;;;;;;17.87;75.83;100951.66;5083813;28;20036;-77
2023/09/04 07:41:03;;;;;;;7.07;3.45;;;;;;;17.90;75.76;100950.28;5083006;28;21104;-76
2023/09/04 07:43:30;;;;;;;8.30;4.35;;;;;;;17.88;76.51;100953.28;5083439;28;20016;-76
2023/09/04 07:45:56;;;;;;;8.63;4.53;;;;;;;17.87;76.82;100953.59;5083252;28;20044;-75
2023/09/04 07:48:21;;;;;;;8.85;4.22;;;;;;;17.87;77.30;100953.59;5082313;28;20043;-76
2023/09/04 07:50:48;;;;;;;8.68;4.28;;;;;;;17.89;77.18;100946.69;5083407;28;20166;-76
2023/09/04 07:53:14;;;;;;;8.52;4.22;;;;;;;17.91;77.13;100949.16;5083121;28;20119;-76
2023/09/04 07:55:39;;;;;;;8.05;5.10;;;;;;;17.91;77.24;100947.22;5082679;28;20153;-76
2023/09/04 07:58:04;;;;;;;10.13;3.60;;;;;;;17.93;77.63;100952.44;5083054;28;20119;-76
2023/09/04 08:00:30;;;;;;;9.00;4.75;;;;;;;17.98;77.31;100960.69;5082462;28;20398;-76
2023/09/04 08:02:55;;;;;;;8.47;4.80;;;;;;;18.05;77.41;100961.19;5083356;28;20490;-76
2023/09/04 08:05:20;;;;;;;8.23;4.10;;;;;;;18.07;77.44;100953.47;5082375;28;20261;-76
2023/09/04 08:07:46;;;;;;;9.63;4.20;;;;;;;18.11;77.30;100963.91;5082824;28;20055;-76
2023/09/04 08:10:13;;;;;;;8.40;4.83;;;;;;;18.14;77.32;100960.59;5083096;28;20256;-76
2023/09/04 08:12:38;;;;;;;8.70;4.85;;;;;;;18.19;77.35;100957.81;5081324;28;20269;-76
2023/09/04 08:15:04;;;;;;;11.23;3.80;;;;;;;18.22;77.24;100954.50;5082305;28;20039;-76
2023/09/04 08:17:30;;;;;;;8.63;4.13;;;;;;;18.27;77.56;100957.19;5083260;28;20027;-76
2023/09/04 08:19:55;;;;;;;7.78;3.83;;;;;;;18.25;77.93;100964.94;5082866;28;20036;-76
2023/09/04 08:22:20;;;;;;;6.90;3.70;;;;;;;18.27;77.53;100957.19;5083220;28;20028;-75
2023/09/04 08:24:48;;;;;;;10.17;4.30;;;;;;;18.34;77.19;100962.41;5082309;28;20776;-76
2023/09/04 08:27:13;;;;;;;7.82;3.85;;;;;;;18.41;77.33;100962.06;5082427;28;20680;-76
2023/09/04 08:29:39;;;;;;;9.30;3.17;;;;;;;18.42;77.20;100959.03;5083133;28;20032;-75
2023/09/04 08:32:05;;;;;;;5.93;3.30;;;;;;;18.48;77.35;100951.50;5082886;28;20504;-76
2023/09/04 08:34:30;;;;;;;9.15;3.75;;;;;;;18.52;77.01;100954.50;5082643;28;20060;-76
2023/09/04 08:36:55;;;;;;;6.10;3.53;;;;;;;18.62;76.37;100951.66;5082755;28;20046;-76
2023/09/04 08:39:21;;;;;;;8.37;3.37;;;;;;;18.66;76.69;100952.72;5082677;28;20032;-76
2023/09/04 08:41:47;;;;;;;6.87;3.37;;;;;;;18.74;76.81;100950.44;5082125;28;21024;-75
2023/09/04 08:44:13;;;;;;;8.07;3.58;;;;;;;18.75;76.79;100947.38;5082477;28;20261;-70
2023/09/04 08:46:40;;;;;;;7.20;3.17;;;;;;;18.82;76.12;100938.75;5082301;28;20079;-70
2023/09/04 08:49:05;;;;;;;6.00;3.15;;;;;;;19.06;74.75;100948.19;5082477;28;20032;-70
2023/09/04 08:51:31;;;;;;;5.80;3.20;;;;;;;19.11;74.22;100956.41;5083562;28;20096;-69
2023/09/04 08:53:57;;;;;;;7.45;3.30;;;;;;;19.28;72.38;100946.84;5086393;28;20055;-69
2023/09/04 08:56:24;;;;;;;5.47;2.92;;;;;;;19.34;70.99;100948.44;5086482;28;20038;-71
2023/09/04 08:58:49;;;;;;;9.43;3.55;;;;;;;19.48;70.41;100949.38;5086723;28;20031;-69
2023/09/04 09:01:16;;;;;;;5.47;3.50;;;;;;;19.50;70.83;100948.22;5086139;28;20031;-70
2023/09/04 09:03:42;;;;;;;6.47;2.95;;;;;;;19.47;71.13;100944.09;5086341;28;20792;-70
2023/09/04 09:06:08;;;;;;;4.60;2.38;;;;;;;19.43;71.41;100946.66;5086018;28;20048;-70
2023/09/04 09:08:33;;;;;;;6.45;2.90;;;;;;;19.43;71.84;100941.13;5086124;28;20039;-70
2023/09/04 09:11:01;;;;;;;7.60;3.50;;;;;;;19.51;71.57;100941.56;5086146;28;20044;-69
2023/09/04 09:13:26;;;;;;;7.45;2.67;;;;;;;19.52;71.83;100932.16;5085398;28;20602;-70
2023/09/04 09:15:51;;;;;;;6.25;3.35;;;;;;;19.53;71.86;100939.31;5086330;28;20031;-69
2023/09/04 09:18:37;;;;;;;5.00;2.43;;;;;;;19.56;71.66;100930.44;5086348;28;20059;-70
2023/09/04 09:21:20;;;;;;;7.00;3.28;;;;;;;19.60;71.40;100928.75;5086141;28;20311;-69
2023/09/04 09:23:45;;;;;;;5.78;2.88;;;;;;;19.68;71.30;100936.38;5085874;28;20081;-69
2023/09/04 09:26:10;;;;;;;5.53;2.93;;;;;;;19.71;70.75;100927.47;5086245;28;20040;-69
2023/09/04 09:28:36;;;;;;;5.78;3.03;;;;;;;19.75;71.04;100924.13;5085852;28;20291;-70
2023/09/04 09:31:01;;;;;;;9.25;2.28;;;;;;;19.74;71.43;100923.28;5085770;28;20194;-71
2023/09/04 09:33:27;;;;;;;5.97;3.00;;;;;;;19.72;71.50;100920.00;5085219;28;20135;-71
2023/09/04 09:35:54;;;;;;;6.20;2.90;;;;;;;19.71;71.45;100924.69;5084967;28;20285;-70
2023/09/04 09:38:19;;;;;;;8.15;3.00;;;;;;;19.78;70.71;100923.50;5085565;28;20498;-69
2023/09/04 09:40:45;;;;;;;5.25;2.65;;;;;;;20.01;69.45;100918.19;5085925;28;20032;-69
2023/09/04 09:43:10;;;;;;;5.43;2.60;;;;;;;20.05;69.09;100913.69;5085965;28;20036;-72
2023/09/04 09:45:35;;;;;;;5.18;2.65;;;;;;;20.09;69.65;100922.25;5085160;28;20302;-71
2023/09/04 09:48:05;;;;;;;6.22;2.83;;;;;;;20.14;69.75;100911.91;5085584;28;20124;-70
2023/09/04 09:50:31;;;;;;;7.95;2.88;;;;;;;20.23;69.04;100906.50;5085311;28;20071;-70
2023/09/04 09:53:01;;;;;;;8.02;2.65;;;;;;;20.34;67.50;100904.38;5085527;28;20245;-70
2023/09/04 09:55:28;;;;;;;4.78;2.42;;;;;;;20.55;65.55;100909.53;5085123;28;20036;-69
2023/09/04 09:57:54;;;;;;;4.60;2.28;;;;;;;20.53;66.40;100900.72;5085386;28;20505;-70
2023/09/04 10:00:19;;;;;;;5.00;2.35;;;;;;;20.50;66.27;100899.38;5084937;28;20043;-69
2023/09/04 10:02:44;;;;;;;4.82;2.40;;;;;;;20.54;66.63;100902.38;5085160;28;20503;-70
2023/09/04 10:05:10;;;;;;;5.00;2.83;;;;;;;20.71;65.68;100898.16;5085196;28;20063;-76
2023/09/04 10:07:37;;;;;;;6.97;3.40;;;;;;;20.77;65.05;100902.47;5085932;28;20289;-76
2023/09/04 10:10:05;;;;;;;8.00;3.30;;;;;;;20.81;65.44;100899.94;5085514;28;20036;-76
2023/09/04 10:12:46;;;;;;;5.82;2.72;;;;;;;20.87;66.07;100893.16;5085441;28;20036;-75
2023/09/04 10:15:20;;;;;;;7.22;3.20;;;;;;;20.86;66.07;100892.34;5084294;28;20048;-76
2023/09/04 10:17:55;;;;;;;6.43;2.70;;;;;;;20.90;65.72;100894.50;5085378;28;20032;-75
2023/09/04 10:20:22;;;;;;;5.40;2.33;;;;;;;21.03;65.53;100877.06;5085224;28;20123;-76
2023/09/04 10:22:53;;;;;;;13.45;2.90;;;;;;;21.03;65.24;100885.38;5084806;28;20344;-75
2023/09/04 10:25:53;;;;;;;9.65;3.10;;;;;;;21.14;66.12;100880.44;5083770;28;20028;-75
2023/09/04 10:28:27;;;;;;;7.72;3.10;;;;;;;21.15;65.40;100872.97;5085060;28;20036;-75
2023/09/04 10:30:55;;;;;;;5.03;2.60;;;;;;;21.20;65.48;100881.97;5084853;28;20143;-75
2023/09/04 10:33:21;;;;;;;5.50;2.70;;;;;;;21.24;64.49;100876.63;5084323;28;20676;-75
2023/09/04 10:35:46;;;;;;;7.13;2.55;;;;;;;21.32;65.22;100867.56;5084255;28;20040;-75
2023/09/04 10:38:13;;;;;;;7.35;2.50;;;;;;;21.36;64.22;100866.97;5084846;28;20454;-76
2023/09/04 10:40:40;;;;;;;7.07;2.38;;;;;;;21.40;64.58;100873.53;5085100;28;20035;-75
2023/09/04 10:43:08;;;;;;;3.90;2.30;;;;;;;21.41;64.44;100867.66;5084829;28;20389;-75
2023/09/04 10:45:33;;;;;;;4.65;1.85;;;;;;;21.46;63.53;100855.63;5084533;28;20063;-76
2023/09/04 10:48:01;;;;;;;4.65;2.28;;;;;;;21.54;62.08;100854.88;5084941;28;20066;-76
2023/09/04 10:50:33;;;;;;;4.25;2.17;;;;;;;21.60;61.46;100846.44;5084555;28;20039;-76
2023/09/04 10:53:03;;;;;;;4.63;2.80;;;;;;;21.65;60.79;100847.16;5084646;28;20059;-75
2023/09/04 10:55:28;;;;;;;6.38;2.53;;;;;;;21.67;61.51;100846.81;5083753;28;20127;-75
2023/09/04 10:58:01;;;;;;;8.65;2.70;;;;;;;21.68;61.03;100840.94;5084382;28;20178;-76
2023/09/04 11:00:34;;;;;;;4.90;2.10;;;;;;;21.72;60.89;100838.38;5084214;28;20485;-76
2023/09/04 11:03:14;;;;;;;6.57;2.45;;;;;;;21.75;60.42;100834.16;5084597;28;20401;-76
2023/09/04 11:06:02;;;;;;;4.90;2.20;;;;;;;21.81;61.80;100841.22;5082914;28;20040;-76
2023/09/04 11:08:28;;;;;;;5.40;1.65;;;;;;;21.86;60.49;100838.34;5084493;28;20325;-76
2023/09/04 11:11:05;;;;;;;5.43;2.35;;;;;;;21.95;58.97;100835.63;5084369;28;20036;-76
2023/09/04 11:13:36;;;;;;;3.40;1.65;;;;;;;22.01;57.97;100833.53;5083460;28;20062;-75
2023/09/04 11:16:07;;;;;;;3.63;1.73;;;;;;;22.10;57.81;100831.63;5083710;28;20082;-76
2023/09/04 11:18:37;;;;;;;3.45;1.65;;;;;;;22.16;56.62;100837.88;5083914;28;20036;-77